Svend Maersk — OYJS2 — position and weather

sailwx.info

Track history (hours):
 
Tides and Currents Weather Stations Pressure Air Temp Water Temp Dewpoint Dewpoint Depression Visibility Wind Speed Wind Dir Waves Ship Positions

Svend Maersk

Last reported at 2016-Apr-25 22:31 UTC. Time now 2016-May-27 08:33 UTC.
Position N 35°12' E 140°48'.
Warning: this ship's position is 31 days out of date.

Type: Ship (hazmat cat B). MMSI: 219791000.

Date/timePositionNaut miles runAvg speedWind from/ knotsBaromVisibWave heightAir tempDewpointWater temp
2016-Apr-25 22:31N 35°12' E 140°48'1919.1
2016-Apr-25 21:33N 35°03' E 140°28'1818.1
2016-Apr-25 20:33N 34°54' E 140°09'1716.8
2016-Apr-25 19:33N 34°50' E 139°50'1313.0
2016-Apr-25 18:34N 35°00' E 139°40'1514.8
2016-Apr-25 17:33N 35°14' E 139°46'1110.9
2016-Apr-25 16:33N 35°24' E 139°40'1 0.5
2016-Apr-25 15:33N 35°24' E 139°41'0 0.0
2016-Apr-25 14:33N 35°24' E 139°41'0 0.0
2016-Apr-25 13:33N 35°24' E 139°41'0 0.0
2016-Apr-25 12:33N 35°24' E 139°41'0 0.0
2016-Apr-25 11:33N 35°24' E 139°41'0 0.0
2016-Apr-25 10:33N 35°24' E 139°41'0 0.0
2016-Apr-25 09:33N 35°24' E 139°41'0 0.0
2016-Apr-25 08:33N 35°24' E 139°41'0 0.0
2016-Apr-25 07:33N 35°24' E 139°41'1 1.2
2016-Apr-25 06:34N 35°23' E 139°41'1110.6
2016-Apr-25 05:33N 35°13' E 139°47'1413.9
2016-Apr-25 04:33N 35°00' E 139°42'  
2016-Apr-20 15:32N 29°49' E 122°44'1312.5
2016-Apr-20 14:31N 29°44' E 122°31'1010.7
2016-Apr-20 13:33N 29°45' E 122°19'9 9.1
2016-Apr-20 12:33N 29°51' E 122°11'1110.7
2016-Apr-20 11:33N 29°46' E 122°00'0 0.1
2016-Apr-20 10:33N 29°46' E 122°00'0 0.0
2016-Apr-19 22:12N 29°46' E 122°00'4 4.9
2016-Apr-19 21:29N 29°48' E 122°04'10 9.9
2016-Apr-19 20:29N 29°48' E 122°16'8 8.1
2016-Apr-19 19:33N 29°44' E 122°23'1312.6
2016-Apr-19 18:33N 29°37' E 122°36'36016.8
2016-Apr-18 21:12N 24°28' E 119°10'1116.1
2016-Apr-18 20:32N 24°21' E 119°01'1715.8
2016-Apr-18 19:29N 24°10' E 118°47'1815.0
2016-Apr-18 18:18N 23°60' E 118°31'1114.9
2016-Apr-18 17:33N 23°53' E 118°21'1614.8
2016-Apr-18 16:28N 23°45' E 118°07'1914.6
2016-Apr-18 15:08N 23°33' E 117°50'5715.7
2016-Apr-18 11:30N 22°57' E 117°01'15515.5
2016-Apr-18 01:33N 22°06' E 114°23'2411.5
2016-Apr-17 23:29N 22°21' E 114°03'1 0.0
2016-Apr-17 06:04N 22°21' E 114°02'5 8.8
2016-Apr-17 05:33N 22°20' E 114°07'0 0.5
2016-Apr-17 04:33N 22°20' E 114°07'0 0.1
2016-Apr-17 03:30N 22°20' E 114°07'0 0.1
2016-Apr-17 02:33N 22°20' E 114°07'0 0.0
2016-Apr-17 01:33N 22°20' E 114°07'0 0.0
2016-Apr-17 00:33N 22°20' E 114°07'0 0.0
2016-Apr-16 23:30N 22°20' E 114°07'0 0.0
2016-Apr-16 22:33N 22°20' E 114°07'0 0.0
2016-Apr-16 21:33N 22°20' E 114°07'0 0.0
2016-Apr-16 20:33N 22°20' E 114°07'0 0.0
2016-Apr-16 19:33N 22°20' E 114°07'0 0.0
2016-Apr-16 18:30N 22°20' E 114°07'0 0.0
2016-Apr-16 17:33N 22°20' E 114°07'0 0.0
2016-Apr-16 16:33N 22°20' E 114°07'8 5.7
2016-Apr-16 15:10N 22°13' E 114°10'11 6.5
2016-Apr-16 13:27N 22°02' E 114°07'0 0.0
2016-Apr-16 10:28N 22°02' E 114°07'0 0.0
2016-Apr-15 23:13N 22°02' E 114°07'  
Track history (hours):
 
Tides and Currents Weather Stations Pressure Air Temp Water Temp Dewpoint Dewpoint Depression Visibility Wind Speed Wind Dir Waves Ship Positions

Svend Maersk

Last reported at 2016-Apr-25 22:31 UTC. Time now 2016-May-27 08:33 UTC.
Position N 35°12' E 140°48'.
Warning: this ship's position is 31 days out of date.

Type: Ship (hazmat cat B). MMSI: 219791000.

Date/timePositionNaut miles runAvg speedWind from/ knotsBaromVisibWave heightAir tempDewpointWater temp
2016-Apr-25 22:31N 35°12' E 140°48'1919.1
2016-Apr-25 21:33N 35°03' E 140°28'1818.1
2016-Apr-25 20:33N 34°54' E 140°09'1716.8
2016-Apr-25 19:33N 34°50' E 139°50'1313.0
2016-Apr-25 18:34N 35°00' E 139°40'1514.8
2016-Apr-25 17:33N 35°14' E 139°46'1110.9
2016-Apr-25 16:33N 35°24' E 139°40'1 0.5
2016-Apr-25 15:33N 35°24' E 139°41'0 0.0
2016-Apr-25 14:33N 35°24' E 139°41'0 0.0
2016-Apr-25 13:33N 35°24' E 139°41'0 0.0
2016-Apr-25 12:33N 35°24' E 139°41'0 0.0
2016-Apr-25 11:33N 35°24' E 139°41'0 0.0
2016-Apr-25 10:33N 35°24' E 139°41'0 0.0
2016-Apr-25 09:33N 35°24' E 139°41'0 0.0
2016-Apr-25 08:33N 35°24' E 139°41'0 0.0
2016-Apr-25 07:33N 35°24' E 139°41'1 1.2
2016-Apr-25 06:34N 35°23' E 139°41'1110.6
2016-Apr-25 05:33N 35°13' E 139°47'1413.9
2016-Apr-25 04:33N 35°00' E 139°42'  
2016-Apr-20 15:32N 29°49' E 122°44'1312.5
2016-Apr-20 14:31N 29°44' E 122°31'1010.7
2016-Apr-20 13:33N 29°45' E 122°19'9 9.1
2016-Apr-20 12:33N 29°51' E 122°11'1110.7
2016-Apr-20 11:33N 29°46' E 122°00'0 0.1
2016-Apr-20 10:33N 29°46' E 122°00'0 0.0
2016-Apr-19 22:12N 29°46' E 122°00'4 4.9
2016-Apr-19 21:29N 29°48' E 122°04'10 9.9
2016-Apr-19 20:29N 29°48' E 122°16'8 8.1
2016-Apr-19 19:33N 29°44' E 122°23'1312.6
2016-Apr-19 18:33N 29°37' E 122°36'36016.8
2016-Apr-18 21:12N 24°28' E 119°10'1116.1
2016-Apr-18 20:32N 24°21' E 119°01'1715.8
2016-Apr-18 19:29N 24°10' E 118°47'1815.0
2016-Apr-18 18:18N 23°60' E 118°31'1114.9
2016-Apr-18 17:33N 23°53' E 118°21'1614.8
2016-Apr-18 16:28N 23°45' E 118°07'1914.6
2016-Apr-18 15:08N 23°33' E 117°50'5715.7
2016-Apr-18 11:30N 22°57' E 117°01'15515.5
2016-Apr-18 01:33N 22°06' E 114°23'2411.5
2016-Apr-17 23:29N 22°21' E 114°03'1 0.0
2016-Apr-17 06:04N 22°21' E 114°02'5 8.8
2016-Apr-17 05:33N 22°20' E 114°07'0 0.5
2016-Apr-17 04:33N 22°20' E 114°07'0 0.1
2016-Apr-17 03:30N 22°20' E 114°07'0 0.1
2016-Apr-17 02:33N 22°20' E 114°07'0 0.0
2016-Apr-17 01:33N 22°20' E 114°07'0 0.0
2016-Apr-17 00:33N 22°20' E 114°07'0 0.0
2016-Apr-16 23:30N 22°20' E 114°07'0 0.0
2016-Apr-16 22:33N 22°20' E 114°07'0 0.0
2016-Apr-16 21:33N 22°20' E 114°07'0 0.0
2016-Apr-16 20:33N 22°20' E 114°07'0 0.0
2016-Apr-16 19:33N 22°20' E 114°07'0 0.0
2016-Apr-16 18:30N 22°20' E 114°07'0 0.0
2016-Apr-16 17:33N 22°20' E 114°07'0 0.0
2016-Apr-16 16:33N 22°20' E 114°07'8 5.7
2016-Apr-16 15:10N 22°13' E 114°10'11 6.5
2016-Apr-16 13:27N 22°02' E 114°07'0 0.0
2016-Apr-16 10:28N 22°02' E 114°07'0 0.0
2016-Apr-15 23:13N 22°02' E 114°07'  

Dump ship's entire track history